Time;durP1;ratioP1;P1;durP2;ratioP2;P2;SDS_P1;SDS_P2;PMS_P1;PMS_P2;Temp;Humidity;BMP_temperature;BMP_pressure;BME280_temperature;BME280_humidity;BME280_pressure;Samples;Min_cycle;Max_cycle;Signal;HPM_P1;HPM_P2
2023/05/10 00:00:41;;;;;;;;;2.50;2.50;;;;;15.15;58.03;100804.06;4923183;28;45439;-71
2023/05/10 00:03:06;;;;;;;;;1.25;1.00;;;;;15.15;58.29;100803.22;4923443;28;47055;-72
2023/05/10 00:05:32;;;;;;;;;1.50;1.00;;;;;15.11;58.20;100797.16;4924515;28;45352;-71
2023/05/10 00:07:57;;;;;;;;;2.75;1.75;;;;;15.11;57.85;100800.66;4924595;28;45323;-71
2023/05/10 00:10:23;;;;;;;;;2.25;2.25;;;;;15.05;58.26;100795.56;4924302;28;45397;-71
2023/05/10 00:12:48;;;;;;;;;2.00;1.25;;;;;15.02;57.98;100800.97;4922928;28;46695;-72
2023/05/10 00:15:14;;;;;;;;;1.75;1.75;;;;;15.00;58.27;100808.06;4924478;28;46330;-72
2023/05/10 00:17:39;;;;;;;;;3.00;1.75;;;;;14.97;57.81;100813.47;4924594;28;45343;-71
2023/05/10 00:20:05;;;;;;;;;1.50;1.25;;;;;14.94;57.91;100805.63;4923024;28;45726;-71
2023/05/10 00:22:34;;;;;;;;;1.50;1.50;;;;;14.92;58.16;100808.31;4938859;28;47720;-71
2023/05/10 00:25:00;;;;;;;;;1.75;0.25;;;;;14.90;57.76;100807.50;4922819;28;46371;-71
2023/05/10 00:27:25;;;;;;;;;1.25;1.00;;;;;14.86;57.94;100802.38;4924320;28;45788;-71
2023/05/10 00:30:00;;;;;;;;;1.00;1.00;;;;;14.82;58.15;100811.28;4921716;28;45636;-71
2023/05/10 00:32:25;;;;;;;;;1.25;0.00;;;;;14.78;57.54;100807.91;4922860;28;48209;-71
2023/05/10 00:34:50;;;;;;;;;1.25;0.50;;;;;14.70;57.90;100809.91;4922761;28;45282;-71
2023/05/10 00:37:16;;;;;;;;;4.75;1.25;;;;;14.66;57.74;100808.25;4922787;28;45441;-71
2023/05/10 00:39:41;;;;;;;;;1.00;0.75;;;;;14.65;57.69;100814.47;4924047;28;45161;-71
2023/05/10 00:42:06;;;;;;;;;2.00;0.00;;;;;14.59;57.34;100813.69;4923972;28;45508;-71
2023/05/10 00:44:32;;;;;;;;;1.00;1.00;;;;;14.55;57.52;100821.75;4924052;28;45398;-71
2023/05/10 00:46:59;;;;;;;;;0.25;0.00;;;;;14.52;57.49;100819.22;4922887;28;45288;-71
2023/05/10 00:49:25;;;;;;;;;3.00;1.25;;;;;14.47;57.57;100822.00;4923769;28;45592;-71
2023/05/10 00:51:50;;;;;;;;;3.75;0.75;;;;;14.44;57.19;100819.44;4923480;28;45283;-70
2023/05/10 00:54:16;;;;;;;;;1.25;1.25;;;;;14.35;57.51;100819.69;4923700;28;45433;-71
2023/05/10 00:56:48;;;;;;;;;2.00;1.00;;;;;14.34;57.03;100833.81;4924202;28;45509;-71
2023/05/10 00:59:16;;;;;;;;;0.50;0.00;;;;;14.26;57.05;100827.00;4923774;28;45271;-71
2023/05/10 01:01:42;;;;;;;;;3.00;1.00;;;;;14.21;57.30;100828.88;4922333;28;46869;-71
2023/05/10 01:04:08;;;;;;;;;0.00;0.00;;;;;14.17;56.95;100836.94;4922286;28;45336;-71
2023/05/10 01:06:33;;;;;;;;;0.00;0.00;;;;;14.13;56.80;100822.94;4923648;28;45303;-72
2023/05/10 01:08:59;;;;;;;;;0.75;0.75;;;;;14.07;57.27;100829.25;4922004;28;45593;-71
2023/05/10 01:11:25;;;;;;;;;0.25;0.25;;;;;13.98;57.30;100834.78;4922247;28;45494;-71
2023/05/10 01:13:57;;;;;;;;;2.75;0.00;;;;;14.00;56.74;100838.28;4923309;28;45350;-71
2023/05/10 01:16:23;;;;;;;;;2.00;0.00;;;;;13.93;56.81;100832.28;4922385;28;45293;-71
2023/05/10 01:18:50;;;;;;;;;1.50;0.00;;;;;13.91;57.31;100834.09;4923491;28;45425;-71
2023/05/10 01:21:15;;;;;;;;;5.00;1.00;;;;;13.92;56.95;100833.22;4921809;28;45643;-71
2023/05/10 01:23:59;;;;;;;;;0.75;0.75;;;;;13.87;56.75;100835.06;4923200;28;45267;-72
2023/05/10 01:26:33;;;;;;;;;1.75;0.00;;;;;13.84;57.05;100831.69;4922243;28;45536;-72
2023/05/10 01:29:11;;;;;;;;;3.25;0.50;;;;;13.80;56.68;100829.09;4923497;28;45464;-71
2023/05/10 01:32:01;;;;;;;;;0.00;0.00;;;;;13.79;57.01;100821.22;4921835;28;46800;-71
2023/05/10 01:34:39;;;;;;;;;0.25;0.25;;;;;13.76;56.82;100831.84;4923016;28;45315;-71
2023/05/10 01:37:13;;;;;;;;;2.00;1.00;;;;;13.74;56.50;100831.88;4922075;28;45246;-71
2023/05/10 01:40:01;;;;;;;;;1.00;1.00;;;;;13.73;57.14;100837.22;4937694;28;46064;-71
2023/05/10 01:42:36;;;;;;;;;0.75;0.00;;;;;13.68;56.77;100824.13;4903553;28;46664;-73
2023/05/10 01:45:18;;;;;;;;;3.00;0.00;;;;;13.68;56.51;100836.47;4923200;28;45318;-71
2023/05/10 01:47:46;;;;;;;;;1.00;1.00;;;;;13.67;57.13;100837.38;4922993;28;45374;-72
2023/05/10 01:50:28;;;;;;;;;2.75;1.00;;;;;13.65;57.16;100825.06;4922946;28;45449;-71
2023/05/10 01:52:56;;;;;;;;;2.00;1.00;;;;;13.63;56.63;100829.56;4908665;28;47832;-71
2023/05/10 01:55:26;;;;;;;;;1.50;0.00;;;;;13.58;56.93;100820.84;4937423;28;45284;-72
2023/05/10 01:58:00;;;;;;;;;0.50;0.50;;;;;13.56;56.52;100827.06;4923249;28;45406;-72
2023/05/10 02:00:28;;;;;;;;;1.00;0.00;;;;;13.53;56.90;100830.66;4922704;28;45467;-72
2023/05/10 02:02:55;;;;;;;;;0.00;0.00;;;;;13.50;56.83;100825.47;4921462;28;47865;-72
2023/05/10 02:05:22;;;;;;;;;1.50;0.00;;;;;13.51;56.81;100840.41;4922730;28;45271;-72
2023/05/10 02:07:50;;;;;;;;;0.00;0.00;;;;;13.46;56.70;100840.50;4922782;28;45256;-72
2023/05/10 02:10:16;;;;;;;;;1.00;0.50;;;;;13.46;56.43;100852.84;4922458;28;45614;-72
2023/05/10 02:12:44;;;;;;;;;0.00;0.00;;;;;13.43;56.72;100853.81;4922494;28;45402;-72
2023/05/10 02:15:12;;;;;;;;;0.75;0.75;;;;;13.42;56.98;100856.47;4922709;28;45252;-72
2023/05/10 02:17:39;;;;;;;;;0.00;0.00;;;;;13.38;56.74;100845.09;4921563;28;45276;-71
2023/05/10 02:20:08;;;;;;;;;1.00;1.00;;;;;13.41;56.67;100847.69;4920948;28;45329;-72
2023/05/10 02:22:36;;;;;;;;;0.50;0.50;;;;;13.40;57.04;100855.66;4922200;28;45267;-72
2023/05/10 02:25:06;;;;;;;;;0.00;0.00;;;;;13.37;56.64;100858.31;4922516;28;46092;-72
2023/05/10 02:27:33;;;;;;;;;4.75;1.75;;;;;13.38;56.69;100860.09;4921318;28;45463;-72
2023/05/10 02:29:59;;;;;;;;;0.00;0.00;;;;;13.33;56.90;100847.84;4921065;28;45431;-71
2023/05/10 02:32:27;;;;;;;;;1.00;0.00;;;;;13.32;56.81;100847.88;4922322;28;46290;-72
2023/05/10 02:34:54;;;;;;;;;1.00;1.00;;;;;13.35;56.91;100846.94;4922345;28;45295;-72
2023/05/10 02:37:21;;;;;;;;;1.25;0.00;;;;;13.32;56.55;100853.16;4920999;28;45352;-71
2023/05/10 02:39:48;;;;;;;;;1.50;1.00;;;;;13.31;56.91;100846.16;4922141;28;45513;-72
2023/05/10 02:42:18;;;;;;;;;0.00;0.00;;;;;13.27;57.05;100840.06;4922351;28;45704;-72
2023/05/10 02:44:47;;;;;;;;;2.00;0.75;;;;;13.27;56.81;100834.78;4920752;28;45210;-71
2023/05/10 02:47:13;;;;;;;;;1.00;1.00;;;;;13.29;56.63;100843.50;4921338;28;45620;-72
2023/05/10 02:49:38;;;;;;;;;0.00;0.00;;;;;13.30;56.81;100853.19;4922075;28;45476;-72
2023/05/10 02:52:09;;;;;;;;;3.00;2.00;;;;;13.27;57.13;100842.72;4920726;28;45359;-72
2023/05/10 02:54:43;;;;;;;;;1.00;1.00;;;;;13.26;57.03;100835.69;4909978;28;45579;-72
2023/05/10 02:57:14;;;;;;;;;0.25;0.00;;;;;13.25;56.87;100830.44;4922231;28;45319;-72
2023/05/10 02:59:40;;;;;;;;;3.00;1.00;;;;;13.28;57.05;100830.38;4922164;28;45410;-72
2023/05/10 03:02:06;;;;;;;;;2.75;1.00;;;;;13.28;56.82;100833.88;4921957;28;45977;-72
2023/05/10 03:04:31;;;;;;;;;1.75;1.00;;;;;13.25;57.06;100838.38;4922255;28;45290;-72
2023/05/10 03:06:56;;;;;;;;;2.00;1.00;;;;;13.26;57.18;100830.41;4921922;28;45247;-72
2023/05/10 03:09:21;;;;;;;;;1.00;1.00;;;;;13.25;57.05;100826.03;4922164;28;45407;-72
2023/05/10 03:12:03;;;;;;;;;4.50;0.50;;;;;13.29;56.94;100829.47;4921754;28;45432;-71
2023/05/10 03:14:44;;;;;;;;;1.00;1.00;;;;;13.25;56.89;100820.75;4920557;28;45873;-71
2023/05/10 03:17:25;;;;;;;;;0.25;0.00;;;;;13.23;57.10;100817.31;4922077;28;45247;-72
2023/05/10 03:19:56;;;;;;;;;2.75;1.50;;;;;13.25;57.29;100817.25;4922012;28;45207;-72
2023/05/10 03:22:26;;;;;;;;;0.00;0.00;;;;;13.23;57.20;100824.34;4920345;28;47211;-72
2023/05/10 03:24:56;;;;;;;;;0.00;0.00;;;;;13.23;57.02;100830.50;4921773;28;45315;-72
2023/05/10 03:27:23;;;;;;;;;3.00;1.00;;;;;13.24;57.36;100832.22;4921991;28;45386;-72
2023/05/10 03:29:50;;;;;;;;;1.50;1.50;;;;;13.26;57.46;100838.31;4920673;28;46104;-73
2023/05/10 03:32:16;;;;;;;;;2.00;0.25;;;;;13.25;57.05;100838.38;4921688;28;46331;-72
2023/05/10 03:34:43;;;;;;;;;0.00;0.00;;;;;13.25;57.33;100838.38;4924934;28;45240;-72
2023/05/10 03:37:08;;;;;;;;;0.00;0.00;;;;;13.22;57.46;100827.88;4925013;28;45331;-72
2023/05/10 03:39:33;;;;;;;;;1.75;0.50;;;;;13.24;57.39;100826.06;4924939;28;45473;-72
2023/05/10 03:41:59;;;;;;;;;2.00;2.00;;;;;13.20;57.39;100830.56;4924872;28;48092;-72
2023/05/10 03:44:24;;;;;;;;;1.75;1.75;;;;;13.16;57.38;100824.47;4923575;28;45396;-72
2023/05/10 03:46:49;;;;;;;;;1.00;1.00;;;;;13.13;57.22;100821.03;4923846;28;45344;-72
2023/05/10 03:49:15;;;;;;;;;0.50;0.50;;;;;13.23;57.56;100833.13;4923507;28;45512;-72
2023/05/10 03:51:40;;;;;;;;;0.75;0.00;;;;;13.22;57.33;100828.75;4932976;28;47928;-72
2023/05/10 03:54:05;;;;;;;;;2.00;1.25;;;;;13.25;57.39;100827.81;4924322;28;52991;-72
2023/05/10 03:56:31;;;;;;;;;1.00;1.00;;;;;13.20;57.20;100829.69;4923625;28;45325;-72
2023/05/10 03:58:56;;;;;;;;;1.00;1.00;;;;;13.20;57.47;100829.69;4924637;28;45326;-72
2023/05/10 04:01:21;;;;;;;;;3.50;3.50;;;;;13.18;57.66;100832.34;4920409;28;46157;-72
2023/05/10 04:03:47;;;;;;;;;4.00;2.00;;;;;13.13;57.45;100821.94;4920928;28;45309;-72
2023/05/10 04:06:12;;;;;;;;;2.75;2.75;;;;;13.18;57.71;100821.78;4924683;28;45235;-72
2023/05/10 04:08:37;;;;;;;;;0.00;0.00;;;;;13.18;57.68;100824.44;4924598;28;45426;-72
2023/05/10 04:11:12;;;;;;;;;1.25;0.50;;;;;13.20;57.76;100821.78;4924445;28;45374;-72
2023/05/10 04:13:37;;;;;;;;;6.50;1.00;;;;;13.20;57.67;100820.00;4924134;28;45244;-71
2023/05/10 04:16:03;;;;;;;;;1.00;1.00;;;;;13.22;57.50;100827.88;4924502;28;45429;-71
2023/05/10 04:18:30;;;;;;;;;1.00;1.00;;;;;13.21;57.74;100816.47;4924343;28;45340;-71
2023/05/10 04:20:55;;;;;;;;;1.00;1.00;;;;;13.19;57.92;100826.19;4922902;28;48477;-72
2023/05/10 04:23:20;;;;;;;;;1.75;0.75;;;;;13.17;57.98;100820.09;4922910;28;45461;-71
2023/05/10 04:25:46;;;;;;;;;0.00;0.00;;;;;13.13;58.02;100818.41;4924110;28;48372;-71
2023/05/10 04:28:11;;;;;;;;;0.50;0.50;;;;;13.14;57.87;100809.59;4924306;28;45212;-71
2023/05/10 04:30:36;;;;;;;;;1.25;1.00;;;;;13.12;57.78;100812.28;4924160;28;46045;-71
2023/05/10 04:33:02;;;;;;;;;0.00;0.00;;;;;13.16;57.91;100818.34;4924154;28;45262;-72
2023/05/10 04:35:28;;;;;;;;;1.00;1.00;;;;;13.12;57.84;100822.81;4924625;28;45319;-71
2023/05/10 04:37:53;;;;;;;;;1.25;1.25;;;;;13.13;58.28;100826.31;4923997;28;45248;-71
2023/05/10 04:40:19;;;;;;;;;1.00;1.00;;;;;13.08;58.44;100822.91;4924003;28;45724;-72
2023/05/10 04:42:44;;;;;;;;;1.00;1.00;;;;;13.07;58.38;100821.19;4922697;28;45308;-74
2023/05/10 04:45:10;;;;;;;;;1.00;1.00;;;;;13.05;58.46;100815.09;4923763;28;45414;-75
2023/05/10 04:47:36;;;;;;;;;2.00;2.00;;;;;13.04;58.17;100824.75;4923886;28;45381;-75
2023/05/10 04:50:02;;;;;;;;;1.75;1.00;;;;;13.07;58.16;100818.53;4923891;28;46449;-76
2023/05/10 04:52:28;;;;;;;;;2.00;0.00;;;;;13.00;58.70;100810.78;4923426;28;45567;-75
2023/05/10 04:54:53;;;;;;;;;1.00;1.00;;;;;13.02;58.46;100810.75;4924075;28;45267;-76
2023/05/10 04:57:18;;;;;;;;;1.75;1.75;;;;;13.00;58.46;100808.16;4922524;28;45882;-76
2023/05/10 04:59:43;;;;;;;;;1.00;1.00;;;;;13.05;58.65;100810.66;4923863;28;45449;-77
2023/05/10 05:02:09;;;;;;;;;1.00;1.00;;;;;13.04;58.64;100816.00;4923691;28;45260;-78
2023/05/10 05:04:34;;;;;;;;;1.75;1.75;;;;;13.05;58.45;100821.22;4923722;28;45227;-77
2023/05/10 05:06:59;;;;;;;;;2.50;1.00;;;;;13.08;58.59;100821.16;4923622;28;45216;-75
2023/05/10 05:09:25;;;;;;;;;4.00;3.00;;;;;13.09;58.75;100814.09;4923601;28;45338;-75
2023/05/10 05:11:50;;;;;;;;;1.00;1.00;;;;;13.12;58.66;100806.13;4920809;28;45260;-73
2023/05/10 05:14:15;;;;;;;;;1.00;1.00;;;;;13.16;58.53;100810.44;4911914;28;50815;-74
2023/05/10 05:16:41;;;;;;;;;1.00;1.00;;;;;13.14;58.94;100799.03;4938233;28;45238;-74
2023/05/10 05:19:06;;;;;;;;;1.25;0.75;;;;;13.20;58.45;100806.81;4923641;28;45327;-73
2023/05/10 05:21:34;;;;;;;;;6.00;4.00;;;;;13.19;58.75;100825.31;4923319;28;45460;-74
2023/05/10 05:24:00;;;;;;;;;2.50;2.50;;;;;13.17;58.70;100810.38;4922462;28;45415;-73
2023/05/10 05:26:26;;;;;;;;;3.25;3.00;;;;;13.19;58.86;100818.25;4938034;28;45306;-72
2023/05/10 05:28:54;;;;;;;;;4.00;2.00;;;;;13.21;59.19;100815.59;4923432;28;45254;-72
2023/05/10 05:31:19;;;;;;;;;2.00;2.00;;;;;13.19;59.18;100814.75;4923357;28;45263;-73
2023/05/10 05:33:45;;;;;;;;;45.50;33.50;;;;;13.20;59.24;100814.72;4923354;28;45545;-73
2023/05/10 05:36:10;;;;;;;;;3.00;2.00;;;;;13.21;59.21;100813.81;4923036;28;45607;-73
2023/05/10 05:38:36;;;;;;;;;2.75;2.75;;;;;13.22;59.32;100823.47;4923412;28;45871;-73
2023/05/10 05:41:01;;;;;;;;;1.75;1.75;;;;;13.19;59.14;100818.25;4922665;28;52799;-73
2023/05/10 05:43:26;;;;;;;;;3.00;3.00;;;;;13.11;59.38;100804.41;4923345;28;45583;-73
2023/05/10 05:45:53;;;;;;;;;2.00;2.00;;;;;13.20;59.32;100822.63;4923291;28;45335;-73
2023/05/10 05:48:18;;;;;;;;;2.00;2.00;;;;;13.21;59.41;100821.75;4923123;28;46171;-73
2023/05/10 05:50:43;;;;;;;;;3.00;3.00;;;;;13.21;59.78;100827.00;4921519;28;45712;-73
2023/05/10 05:53:09;;;;;;;;;5.25;5.25;;;;;13.16;59.78;100819.19;4923009;28;45425;-73
2023/05/10 05:55:35;;;;;;;;;3.00;2.75;;;;;13.18;59.49;100827.06;4921924;28;45509;-73
2023/05/10 05:58:00;;;;;;;;;9.50;9.00;;;;;13.14;59.68;100825.41;4923153;28;45338;-73
2023/05/10 06:00:25;;;;;;;;;17.00;11.00;;;;;13.15;59.67;100827.16;4921541;28;45352;-72
2023/05/10 06:02:51;;;;;;;;;9.00;8.50;;;;;13.12;59.98;100836.00;4921722;28;45376;-73
2023/05/10 06:05:16;;;;;;;;;7.25;7.00;;;;;13.15;59.65;100835.94;4922921;28;45330;-72
2023/05/10 06:07:42;;;;;;;;;6.00;5.00;;;;;13.15;60.18;100835.94;4922691;28;45299;-73
2023/05/10 06:10:08;;;;;;;;;8.00;6.50;;;;;13.16;59.76;100837.66;4921326;28;45366;-73
2023/05/10 06:12:34;;;;;;;;;7.75;6.25;;;;;13.15;59.74;100833.28;4922658;28;45557;-72
2023/05/10 06:14:59;;;;;;;;;4.00;4.00;;;;;13.16;59.84;100845.59;4922695;28;45465;-72
2023/05/10 06:17:25;;;;;;;;;4.75;4.75;;;;;13.19;60.25;100852.56;4922737;28;46098;-72
2023/05/10 06:19:50;;;;;;;;;4.00;4.00;;;;;13.21;59.89;100842.84;4922654;28;45420;-72
2023/05/10 06:22:15;;;;;;;;;4.75;3.50;;;;;13.16;60.40;100844.72;4921438;28;45463;-72
2023/05/10 06:24:41;;;;;;;;;3.00;3.00;;;;;13.19;60.27;100839.38;4922504;28;45526;-72
2023/05/10 06:27:07;;;;;;;;;5.50;4.00;;;;;13.17;60.29;100838.56;4922674;28;45410;-72
2023/05/10 06:29:32;;;;;;;;;4.25;4.00;;;;;13.22;60.36;100846.34;4921212;28;45386;-72
2023/05/10 06:31:58;;;;;;;;;2.50;2.50;;;;;13.22;60.36;100844.59;4922723;28;45237;-72
2023/05/10 06:34:23;;;;;;;;;4.50;4.00;;;;;13.21;60.32;100834.06;4922301;28;45483;-72
2023/05/10 06:36:49;;;;;;;;;3.00;3.00;;;;;13.30;60.62;100866.38;4922468;28;46474;-72
2023/05/10 06:39:14;;;;;;;;;3.25;3.25;;;;;13.30;60.41;100853.19;4922280;28;45310;-71
2023/05/10 06:41:40;;;;;;;;;1.25;1.25;;;;;13.31;60.45;100854.91;4921360;28;45400;-71
2023/05/10 06:44:05;;;;;;;;;3.00;2.00;;;;;13.31;60.47;100857.56;4921125;28;45516;-71
2023/05/10 06:46:31;;;;;;;;;2.00;2.00;;;;;13.31;60.77;100844.34;4922360;28;45357;-71
2023/05/10 06:48:56;;;;;;;;;2.25;2.25;;;;;13.30;60.87;100853.19;4922208;28;45418;-71
2023/05/10 06:51:21;;;;;;;;;4.00;4.00;;;;;13.33;61.06;100862.78;4921784;28;45244;-71
2023/05/10 06:53:47;;;;;;;;;3.00;2.00;;;;;13.30;61.06;100861.09;4921899;28;50734;-71
2023/05/10 06:56:12;;;;;;;;;3.75;3.00;;;;;13.33;61.00;100871.59;4921998;28;45335;-72
2023/05/10 06:58:37;;;;;;;;;4.50;3.75;;;;;13.27;60.78;100855.00;4922121;28;45304;-72
2023/05/10 07:01:05;;;;;;;;;2.75;2.75;;;;;13.35;61.04;100862.78;4922234;28;45325;-72
2023/05/10 07:03:31;;;;;;;;;4.00;3.00;;;;;13.33;61.08;100862.78;4921951;28;45452;-71
2023/05/10 07:06:03;;;;;;;;;6.25;3.00;;;;;13.38;61.23;100866.22;4921758;28;45256;-71
2023/05/10 07:08:30;;;;;;;;;6.50;3.75;;;;;13.36;61.04;100854.81;4923742;28;45614;-71
2023/05/10 07:11:06;;;;;;;;;4.00;4.00;;;;;13.43;60.85;100866.13;4925323;28;45244;-71
2023/05/10 07:13:33;;;;;;;;;2.25;2.25;;;;;13.44;61.05;100873.13;4923325;28;45610;-72
2023/05/10 07:15:59;;;;;;;;;4.75;3.75;;;;;13.43;60.85;100871.41;4925167;28;45192;-72
2023/05/10 07:18:25;;;;;;;;;4.75;3.50;;;;;13.46;61.25;100876.63;4925213;28;45203;-72
2023/05/10 07:20:50;;;;;;;;;3.25;3.25;;;;;13.47;60.85;100880.97;4925041;28;45426;-72
2023/05/10 07:23:17;;;;;;;;;4.25;4.25;;;;;13.47;61.09;100886.25;4925012;28;45319;-72
2023/05/10 07:25:47;;;;;;;;;4.00;3.00;;;;;13.46;61.15;100874.84;4925073;28;45391;-72
2023/05/10 07:28:16;;;;;;;;;3.75;2.25;;;;;13.48;61.36;100877.44;4925079;28;45256;-71
2023/05/10 07:30:42;;;;;;;;;5.00;2.25;;;;;13.48;61.11;100872.16;4925108;28;45346;-72
2023/05/10 07:33:08;;;;;;;;;3.75;3.00;;;;;13.50;61.16;100880.91;4924892;28;45331;-71
2023/05/10 07:35:34;;;;;;;;;5.50;4.00;;;;;13.53;61.05;100872.06;4925013;28;46217;-71
2023/05/10 07:37:59;;;;;;;;;4.50;4.25;;;;;13.57;61.25;100895.72;4924867;28;45402;-71
2023/05/10 07:40:25;;;;;;;;;3.75;3.00;;;;;13.55;61.35;100873.75;4924826;28;45380;-70
2023/05/10 07:42:50;;;;;;;;;3.50;3.00;;;;;13.53;61.36;100877.31;4925023;28;45682;-71
2023/05/10 07:45:15;;;;;;;;;3.00;3.00;;;;;13.56;61.59;100879.88;4923226;28;55281;-71
2023/05/10 07:47:41;;;;;;;;;3.25;3.25;;;;;13.58;61.41;100891.28;4924708;28;45410;-71
2023/05/10 07:50:07;;;;;;;;;3.00;3.00;;;;;13.59;61.55;100880.69;4925080;28;45232;-71
2023/05/10 07:52:32;;;;;;;;;3.00;3.00;;;;;13.63;61.30;100892.91;4924443;28;45514;-71
2023/05/10 07:54:57;;;;;;;;;3.00;2.50;;;;;13.63;61.25;100887.63;4924284;28;52256;-70
2023/05/10 07:57:23;;;;;;;;;4.50;2.00;;;;;13.60;61.51;100876.28;4924727;28;45192;-70
2023/05/10 07:59:48;;;;;;;;;1.50;1.50;;;;;13.64;61.63;100883.22;4925002;28;45210;-70
2023/05/10 08:02:13;;;;;;;;;2.75;2.75;;;;;13.65;61.42;100890.22;4924308;28;48333;-70
2023/05/10 08:04:38;;;;;;;;;4.00;2.25;;;;;13.69;61.60;100891.03;4923202;28;55591;-70
2023/05/10 08:07:04;;;;;;;;;3.50;1.50;;;;;13.68;61.27;100886.66;4924331;28;45251;-71
2023/05/10 08:09:29;;;;;;;;;4.00;2.50;;;;;13.67;61.43;100888.41;4924694;28;45319;-71
2023/05/10 08:11:55;;;;;;;;;2.00;2.00;;;;;13.69;61.53;100891.03;4923070;28;45459;-70
2023/05/10 08:14:20;;;;;;;;;3.50;3.50;;;;;13.72;61.45;100894.47;4922866;28;47136;-72
2023/05/10 08:16:47;;;;;;;;;4.50;3.50;;;;;13.70;61.56;100890.09;4923941;28;50666;-71
2023/05/10 08:19:12;;;;;;;;;4.75;4.75;;;;;13.72;61.47;100896.22;4922357;28;45366;-71
2023/05/10 08:21:38;;;;;;;;;3.75;3.75;;;;;13.72;61.83;100897.09;4923631;28;50130;-71
2023/05/10 08:24:03;;;;;;;;;4.50;4.00;;;;;13.68;61.59;100894.56;4924052;28;46124;-72
2023/05/10 08:26:28;;;;;;;;;6.00;6.00;;;;;13.71;61.95;100898.00;4922879;28;45434;-71
2023/05/10 08:28:54;;;;;;;;;6.50;6.00;;;;;13.67;61.95;100888.41;4924640;28;45437;-71
2023/05/10 08:31:19;;;;;;;;;6.75;6.75;;;;;13.72;61.58;100904.16;4922929;28;45832;-71
2023/05/10 08:33:45;;;;;;;;;5.00;4.00;;;;;13.70;62.12;100893.63;4924039;28;46049;-72
2023/05/10 08:36:11;;;;;;;;;4.75;3.00;;;;;13.68;61.88;100884.00;4922428;28;45313;-71
2023/05/10 08:38:37;;;;;;;;;6.75;5.25;;;;;13.68;61.94;100892.78;4922884;28;45348;-71
2023/05/10 08:41:04;;;;;;;;;4.00;4.00;;;;;13.74;61.88;100916.41;4922279;28;45238;-72
2023/05/10 08:43:29;;;;;;;;;6.75;4.00;;;;;13.70;61.84;100904.19;4923844;28;46354;-71
2023/05/10 08:45:59;;;;;;;;;3.75;3.00;;;;;13.75;61.89;100912.88;4922341;28;45484;-71
2023/05/10 08:48:24;;;;;;;;;4.00;4.00;;;;;13.76;61.62;100919.88;4924259;28;45385;-72
2023/05/10 08:50:53;;;;;;;;;5.25;3.75;;;;;13.77;61.86;100919.00;4923669;28;45251;-72
2023/05/10 08:53:19;;;;;;;;;3.25;3.00;;;;;13.81;61.81;100923.28;4923899;28;46193;-71
2023/05/10 08:55:45;;;;;;;;;4.00;2.75;;;;;13.81;61.76;100918.00;4923492;28;45375;-70
2023/05/10 08:58:11;;;;;;;;;3.50;2.50;;;;;13.81;61.54;100922.41;4922646;28;45405;-70
2023/05/10 09:00:39;;;;;;;;;3.25;3.25;;;;;13.81;61.70;100922.41;4922213;28;45601;-70
2023/05/10 09:03:06;;;;;;;;;3.25;3.25;;;;;13.84;62.18;100935.53;4923769;28;45438;-70
2023/05/10 09:05:31;;;;;;;;;5.50;3.00;;;;;13.85;61.79;100934.66;4923507;28;45202;-70
2023/05/10 09:07:58;;;;;;;;;4.75;3.25;;;;;13.88;61.73;100934.56;4923528;28;45402;-70
2023/05/10 09:10:27;;;;;;;;;7.00;6.00;;;;;13.84;61.76;100932.03;4923436;28;45259;-70
2023/05/10 09:12:55;;;;;;;;;5.00;5.00;;;;;13.87;62.29;100930.16;4921993;28;45436;-70
2023/05/10 09:15:21;;;;;;;;;6.50;5.25;;;;;13.91;61.71;100942.41;4923346;28;45251;-71
2023/05/10 09:17:48;;;;;;;;;6.00;4.75;;;;;13.95;62.03;100952.00;4923686;28;45216;-70
2023/05/10 09:20:13;;;;;;;;;7.25;6.25;;;;;13.97;62.17;100952.84;4923414;28;45482;-70
2023/05/10 09:22:38;;;;;;;;;6.25;6.00;;;;;13.98;62.17;100964.25;4922998;28;45901;-70
2023/05/10 09:25:09;;;;;;;;;7.00;5.25;;;;;14.02;61.86;100967.69;4923140;28;45494;-70
2023/05/10 09:27:35;;;;;;;;;8.25;7.00;;;;;14.03;62.15;100964.16;4922230;28;45289;-69
2023/05/10 09:30:01;;;;;;;;;8.75;6.75;;;;;14.03;62.32;100964.16;4922190;28;45267;-69
2023/05/10 09:32:47;;;;;;;;;11.00;9.00;;;;;14.07;62.03;100965.81;4922952;28;46132;-69
2023/05/10 09:35:24;;;;;;;;;6.50;5.75;;;;;14.13;61.97;100971.78;4923415;28;45180;-70
2023/05/10 09:37:51;;;;;;;;;7.75;7.75;;;;;14.14;62.13;100973.53;4922951;28;45421;-70
2023/05/10 09:40:19;;;;;;;;;12.25;9.00;;;;;14.15;62.29;100974.41;4921570;28;45347;-70
2023/05/10 09:42:52;;;;;;;;;6.25;5.25;;;;;14.19;62.37;100984.00;4922774;28;47038;-70
2023/05/10 09:45:17;;;;;;;;;9.25;8.50;;;;;14.18;61.71;100981.41;4923057;28;45322;-70
2023/05/10 09:47:43;;;;;;;;;10.25;7.75;;;;;14.25;62.06;100990.88;4923062;28;45267;-71
2023/05/10 09:50:09;;;;;;;;;16.00;10.00;;;;;14.24;61.70;100983.88;4923027;28;45294;-71
2023/05/10 09:52:54;;;;;;;;;9.00;8.00;;;;;14.27;62.35;100999.66;4922637;28;45421;-71
2023/05/10 09:55:25;;;;;;;;;9.00;8.75;;;;;14.27;61.68;100992.59;4922699;28;45247;-70
2023/05/10 09:58:01;;;;;;;;;11.75;8.00;;;;;14.29;61.91;100993.41;4923117;28;45369;-70
2023/05/10 10:00:27;;;;;;;;;7.00;6.00;;;;;14.35;62.20;101012.66;4922593;28;45605;-70
2023/05/10 10:02:58;;;;;;;;;12.25;9.00;;;;;14.36;62.08;101009.97;4922719;28;46027;-70
2023/05/10 10:05:34;;;;;;;;;7.25;4.75;;;;;14.37;61.99;101008.22;4922658;28;45303;-71
2023/05/10 10:08:02;;;;;;;;;9.00;7.00;;;;;14.34;61.93;101000.34;4921655;28;45397;-71
2023/05/10 10:10:28;;;;;;;;;12.25;10.50;;;;;14.38;61.73;101012.63;4922349;28;45605;-70
2023/05/10 10:12:55;;;;;;;;;9.00;7.25;;;;;14.42;61.88;101006.31;4922264;28;46411;-69
2023/05/10 10:15:21;;;;;;;;;11.25;9.50;;;;;14.43;61.69;101008.06;4922528;28;45559;-70
2023/05/10 10:17:48;;;;;;;;;10.75;7.75;;;;;14.45;62.06;101014.16;4921432;28;45436;-70
2023/05/10 10:20:14;;;;;;;;;8.00;6.75;;;;;14.49;61.34;101007.91;4922485;28;45518;-69
2023/05/10 10:22:40;;;;;;;;;13.00;8.50;;;;;14.50;61.82;101014.91;4922269;28;45644;-70
2023/05/10 10:25:06;;;;;;;;;9.75;8.00;;;;;14.53;61.39;101003.41;4921837;28;56317;-70
2023/05/10 10:27:52;;;;;;;;;11.50;8.00;;;;;14.55;61.67;101007.75;4922737;28;45432;-69
2023/05/10 10:30:21;;;;;;;;;12.25;8.50;;;;;14.58;61.74;101012.09;4922541;28;45369;-70
2023/05/10 10:33:14;;;;;;;;;14.75;9.50;;;;;14.58;61.51;101005.00;4922180;28;45315;-70
2023/05/10 10:35:40;;;;;;;;;8.75;8.25;;;;;14.58;61.33;101002.38;4920910;28;46160;-70
2023/05/10 10:38:08;;;;;;;;;12.00;8.00;;;;;14.61;61.16;101007.56;4922298;28;45232;-70
2023/05/10 10:40:34;;;;;;;;;8.25;8.25;;;;;14.61;61.22;100998.78;4922197;28;45425;-70
2023/05/10 10:43:26;;;;;;;;;8.25;8.25;;;;;14.62;61.45;101006.66;4921700;28;45393;-70
2023/05/10 10:46:12;;;;;;;;;7.25;4.75;;;;;14.65;61.40;101008.38;4919310;28;45310;-70
2023/05/10 10:48:38;;;;;;;;;12.50;9.00;;;;;14.66;61.52;101007.47;4921136;28;45209;-70
2023/05/10 10:51:03;;;;;;;;;12.50;8.25;;;;;14.62;61.20;101004.00;4921768;28;45217;-70
2023/05/10 10:53:29;;;;;;;;;11.00;7.25;;;;;14.69;61.19;101014.47;4920827;28;48148;-70
2023/05/10 10:56:11;;;;;;;;;8.25;7.25;;;;;14.69;61.14;101003.88;4921841;28;45350;-71
2023/05/10 10:58:38;;;;;;;;;11.50;8.25;;;;;14.71;61.30;101010.00;4922222;28;45240;-71
2023/05/10 11:01:15;;;;;;;;;8.00;6.00;;;;;14.75;61.24;101007.25;4920597;28;45601;-71
2023/05/10 11:04:01;;;;;;;;;8.75;8.75;;;;;14.78;61.44;101004.50;4920513;28;47378;-70
2023/05/10 11:06:34;;;;;;;;;8.50;8.50;;;;;14.68;61.49;100984.50;4921534;28;45440;-70
2023/05/10 11:09:11;;;;;;;;;14.00;8.50;;;;;14.84;60.97;101002.59;4920485;28;45577;-70
2023/05/10 11:11:49;;;;;;;;;10.25;9.00;;;;;14.86;60.84;101001.66;4920676;28;45564;-70
2023/05/10 11:14:20;;;;;;;;;9.25;7.75;;;;;14.89;61.07;101005.97;4920243;28;47573;-71
2023/05/10 11:16:45;;;;;;;;;9.75;7.00;;;;;14.87;60.73;100999.88;4921759;28;45564;-70
2023/05/10 11:19:12;;;;;;;;;8.75;8.00;;;;;14.90;60.55;101003.28;4921977;28;45361;-70
2023/05/10 11:22:12;;;;;;;;;12.75;10.25;;;;;14.92;60.57;101009.41;4921488;28;45425;-70
2023/05/10 11:24:38;;;;;;;;;7.25;5.50;;;;;14.95;60.73;101003.16;4921505;28;46331;-70
2023/05/10 11:27:03;;;;;;;;;11.75;8.25;;;;;14.93;60.72;101007.63;4921608;28;45237;-70